Latest Weather Observations for Cape Jaffa

IDS60801

Issued at 7:02 pm CDT Tuesday 24 January 2017 (issued every 30 minutes, with the page automatically refreshed every 10 minutes)

About weather observations | Map of weather stations | Latest weather observations for SA | Other Formats
Station Details ID: 026095 Name: THE LIMESTONE Lat: -36.97 Lon: 139.72 Height: 17.0 m
Data from the previous 72 hours. | See also: Recent months at Cape Jaffa
Date/Time
CDT
Temp
°C
App
Temp
°C
Dew
Point
°C
Rel
Hum
%
Delta-T
°C
Wind Press
QNH
hPa
Press
MSL
hPa
Rain since
9am
mm
Dir  Spd
km/h
Gust
km/h
Spd
kts
Gust
kts
24/07:00pm 17.3 11.8 9.2 59 4.2 S 28 35 15 19 1020.2 1020.1 0.2
24/06:30pm 17.9 11.9 8.7 55 4.7 SSW 30 35 16 19 1019.8 1019.7 0.2
24/06:00pm 18.4 13.1 9.7 57 4.6 SSW 28 35 15 19 1019.5 1019.4 0.2
24/05:30pm 18.3 12.9 9.6 57 4.6 SSW 28 33 15 18 1019.3 1019.2 0.2
24/05:00pm 18.9 13.6 9.9 56 4.8 SSW 28 35 15 19 1019.2 1019.1 0.2
24/04:30pm 19.0 12.8 9.2 53 5.1 SSW 32 39 17 21 1019.0 1018.9 0.2
24/04:00pm 18.8 12.5 9.0 53 5.1 SSW 32 39 17 21 1019.0 1018.9 0.2
24/03:30pm 19.2 13.1 9.7 54 5.0 SSW 32 39 17 21 1019.1 1019.0 0.2
24/03:00pm 19.1 13.7 9.6 54 5.0 SSW 28 37 15 20 1019.3 1019.2 0.2
24/02:30pm 19.5 13.9 10.2 55 5.0 SSW 30 35 16 19 1019.2 1019.1 0.2
24/02:00pm 19.4 13.4 10.1 55 5.0 SSW 32 39 17 21 1018.9 1018.8 0.2
24/01:30pm 19.2 13.6 10.2 56 4.8 SSW 30 37 16 20 1018.8 1018.7 0.2
24/01:00pm 19.1 14.2 10.1 56 4.8 SSW 26 33 14 18 1018.8 1018.7 0.0
24/12:30pm 18.8 13.9 9.8 56 4.8 SSW 26 32 14 17 1018.6 1018.5 0.0
24/12:00pm 19.4 14.6 10.4 56 4.8 SSW 26 33 14 18 1018.4 1018.3 0.0
24/11:30am 18.9 13.6 9.7 55 4.9 SSW 28 35 15 19 1018.2 1018.1 0.0
24/11:00am 18.9 13.5 9.4 54 5.0 SSW 28 35 15 19 1018.0 1017.9 0.0
24/10:30am 18.3 12.8 10.4 60 4.2 SSW 30 37 16 20 1017.6 1017.5 0.0
24/10:00am 18.4 13.0 11.0 62 4.0 SSW 30 35 16 19 1017.1 1017.0 0.0
24/09:30am 17.8 12.0 10.7 63 3.8 SSW 32 39 17 21 1016.5 1016.4 0.0
24/09:00am 17.8 12.5 11.1 65 3.6 SSW 30 37 16 20 1016.1 1016.0 1.8
24/08:30am 17.3 11.8 10.7 65 3.5 SSW 30 39 16 21 1015.6 1015.5 1.8
24/08:00am 16.8 11.3 10.6 67 3.3 SSW 30 35 16 19 1015.0 1014.9 1.8
24/07:30am 16.3 10.4 10.6 69 3.0 SSW 32 39 17 21 1014.4 1014.3 1.8
24/07:00am 15.9 9.9 10.0 68 3.1 SSW 32 41 17 22 1013.6 1013.5 1.8
24/06:30am 15.8 11.0 11.6 76 2.3 SSW 28 39 15 21 1013.0 1012.9 1.8
24/06:00am 16.0 10.8 11.6 75 2.4 SW 30 41 16 22 1012.4 1012.3 1.8
24/05:30am 16.1 11.8 12.1 77 2.2 SW 26 35 14 19 1012.0 1011.9 1.8
24/05:00am 16.4 12.1 12.2 76 2.3 SW 26 37 14 20 1011.6 1011.5 1.8
24/04:30am 16.2 11.6 12.4 78 2.1 SW 28 35 15 19 1011.0 1010.9 1.8
24/04:00am 16.2 11.7 12.7 80 1.9 SW 28 39 15 21 1010.7 1010.6 1.8
24/03:30am 16.3 12.7 13.0 81 1.8 SW 24 33 13 18 1010.4 1010.3 1.8
24/03:00am 16.7 12.3 13.0 79 2.1 SW 28 39 15 21 1009.7 1009.6 1.8
24/02:30am 17.5 15.4 15.1 86 1.4 WSW 20 28 11 15 1009.4 1009.3 1.8
24/02:00am 17.4 14.4 14.9 85 1.4 WSW 24 32 13 17 1009.4 1009.3 1.8
24/01:30am 17.8 14.2 15.2 85 1.5 WSW 28 37 15 20 1009.3 1009.2 1.8
24/01:00am 17.6 14.1 15.4 87 1.3 WSW 28 37 15 20 1008.8 1008.7 1.8
24/12:30am 17.7 14.4 16.0 90 1.0 WSW 28 35 15 19 1008.3 1008.2 1.8
24/12:00am 18.1 15.5 16.8 92 0.8 WSW 26 35 14 19 1007.8 1007.7 1.8
 
Date/Time
CDT
Temp
°C
App
Temp
°C
Dew
Point
°C
Rel
Hum
%
Delta-T
°C
Wind Press
QNH
hPa
Press
MSL
hPa
Rain since
9am
mm
Dir  Spd
km/h
Gust
km/h
Spd
kts
Gust
kts
23/11:30pm 18.3 15.4 17.1 93 0.7 W 28 37 15 20 1007.3 1007.2 1.8
23/11:00pm 18.3 16.9 17.0 92 0.8 WNW 20 26 11 14 1007.1 1007.0 1.8
23/10:30pm 18.4 17.6 17.1 92 0.8 WNW 17 26 9 14 1006.8 1006.7 1.8
23/10:00pm 18.5 17.3 17.0 91 0.9 WNW 19 28 10 15 1006.3 1006.2 1.8
23/09:30pm 18.6 17.3 16.8 89 1.1 NW 19 26 10 14 1005.9 1005.8 1.8
23/09:00pm 19.0 18.4 16.6 86 1.4 NNW 15 22 8 12 1005.1 1005.0 1.8
23/08:30pm 18.9 18.0 16.9 88 1.2 NNW 17 22 9 12 1004.8 1004.7 1.8
23/08:00pm 19.0 17.6 17.0 88 1.2 N 20 26 11 14 1004.5 1004.4 1.8
23/07:30pm 19.2 18.1 17.2 88 1.2 N 19 24 10 13 1004.0 1004.0 1.8
23/07:00pm 19.2 18.2 16.6 85 1.6 N 17 22 9 12 1003.6 1003.6 1.8
23/06:30pm 19.1 17.6 16.7 86 1.5 N 20 24 11 13 1003.2 1003.2 1.8
23/06:00pm 19.3 18.0 16.7 85 1.6 NNE 19 24 10 13 1003.0 1003.0 1.8
23/05:30pm 19.1 18.4 16.5 85 1.6 NNE 15 19 8 10 1003.6 1003.6 1.8
23/05:00pm 19.2 19.6 16.4 84 1.7 NNE 9 13 5 7 1003.8 1003.8 1.8
23/04:30pm 19.3 19.9 15.8 80 2.1 NNE 7 11 4 6 1004.4 1004.3 1.2
23/04:00pm 20.4 20.6 15.8 75 2.7 N 9 11 5 6 1004.8 1004.7 1.0
23/03:30pm 20.8 22.8 16.0 74 2.9 CALM 0 2 0 1 1004.4 1004.3 1.0
23/03:00pm 20.3 22.0 15.3 73 3.0 CALM 0 2 0 1 1004.5 1004.4 0.6
23/02:30pm 19.8 20.5 16.1 79 2.2 SW 7 11 4 6 1004.8 1004.7 0.6
23/02:00pm 19.9 19.1 16.0 78 2.3 SW 15 19 8 10 1005.4 1005.3 0.2
23/01:30pm 21.6 21.4 15.7 69 3.5 WSW 11 19 6 10 1005.2 1005.1 0.0
23/01:00pm 22.8 21.8 16.6 68 3.8 W 17 22 9 12 1005.2 1005.1 0.0
23/12:30pm 24.4 24.1 14.5 54 5.9 NNW 9 13 5 7 1004.4 1004.3 0.0
23/12:00pm 24.6 25.1 15.5 57 5.5 N 7 11 4 6 1004.5 1004.4 0.0
23/11:30am 24.1 25.2 17.1 65 4.3 NW 7 11 4 6 1004.7 1004.6 0.0
23/11:00am 23.0 24.4 16.3 66 4.1 WNW 4 6 2 3 1004.8 1004.7 0.0
23/10:30am 21.6 20.7 15.9 70 3.4 W 15 35 8 19 1004.8 1004.7 0.0
23/10:00am 25.1 24.1 13.3 48 6.9 N 11 17 6 9 1004.9 1004.8 0.0
23/09:30am 25.7 25.9 14.8 51 6.6 NE 7 9 4 5 1004.7 1004.6 0.0
23/09:00am 25.3 24.5 14.1 50 6.7 NE 11 17 6 9 1004.7 1004.6 0.0
23/08:30am 24.2 24.1 14.9 56 5.6 NE 9 9 5 5 1004.9 1004.8 0.0
23/08:00am 23.8 23.5 14.5 56 5.5 ENE 9 13 5 7 1004.7 1004.6 0.0
23/07:30am 21.8 21.3 13.9 61 4.6 E 9 11 5 6 1004.4 1004.3 0.0
23/07:00am 21.1 21.4 13.5 62 4.4 E 4 6 2 3 1004.9 1004.8 0.0
23/06:30am 20.6 20.0 13.6 64 4.0 E 9 11 5 6 1004.6 1004.5 0.0
23/06:00am 20.5 19.9 13.5 64 4.0 E 9 11 5 6 1004.6 1004.5 0.0
23/05:30am 21.0 20.2 12.9 60 4.6 E 9 11 5 6 1004.6 1004.5 0.0
23/05:00am 21.4 20.5 12.5 57 5.0 E 9 11 5 6 1004.5 1004.4 0.0
23/04:30am 21.4 20.5 12.5 57 5.1 E 9 11 5 6 1004.7 1004.6 0.0
23/04:00am 21.5 20.6 12.6 57 5.0 ESE 9 11 5 6 1005.0 1004.9 0.0
23/03:30am 21.6 21.3 12.7 57 5.1 ESE 6 7 3 4 1005.5 1005.4 0.0
23/03:00am 21.8 21.6 12.9 57 5.1 ESE 6 9 3 5 1005.9 1005.8 0.0
23/02:30am 21.9 21.7 13.0 57 5.1 ESE 6 7 3 4 1006.5 1006.4 0.0
23/02:00am 21.6 21.6 13.5 60 4.7 SSE 6 6 3 3 1007.0 1006.9 0.0
23/01:30am 22.3 22.4 12.8 55 5.4 SE 4 6 2 3 1007.3 1007.2 0.0
23/01:00am 22.4 22.0 12.4 53 5.7 SE 6 9 3 5 1007.4 1007.3 0.0
23/12:30am 22.4 22.0 12.9 55 5.5 SE 7 9 4 5 1007.3 1007.2 0.0
23/12:00am 22.9 22.4 12.5 52 5.9 ESE 7 11 4 6 1007.9 1007.8 0.0
 
Date/Time
CDT
Temp
°C
App
Temp
°C
Dew
Point
°C
Rel
Hum
%
Delta-T
°C
Wind Press
QNH
hPa
Press
MSL
hPa
Rain since
9am
mm
Dir  Spd
km/h
Gust
km/h
Spd
kts
Gust
kts
22/11:30pm 22.8 21.2 11.5 49 6.3 SE 11 13 6 7 1007.4 1007.3 0.0
22/11:00pm 22.4 21.1 11.2 49 6.2 SE 9 13 5 7 1008.0 1007.9 0.0
22/10:30pm 22.2 20.7 11.9 52 5.8 ESE 11 15 6 8 1007.9 1007.8 0.0
22/10:00pm 22.4 21.3 13.2 56 5.3 SE 11 15 6 8 1008.6 1008.5 0.0
22/09:30pm 22.3 21.1 12.8 55 5.4 SE 11 17 6 9 1009.0 1008.9 0.0
22/09:00pm 21.3 20.0 14.9 67 3.8 S 15 19 8 10 1009.3 1009.2 0.0
22/08:30pm 21.6 20.0 13.8 61 4.5 S 15 20 8 11 1009.5 1009.4 0.0
22/08:00pm 23.0 20.3 11.7 49 6.4 SSW 17 19 9 10 1009.2 1009.1 0.0
22/07:30pm 23.2 21.1 12.5 51 6.1 S 15 17 8 9 1009.1 1009.0 0.0
22/07:00pm 23.7 22.8 13.8 53 5.8 SSW 11 13 6 7 1009.0 1008.9 0.0
22/06:30pm 24.9 23.2 12.5 46 7.1 SSW 13 15 7 8 1008.8 1008.7 0.0
22/06:00pm 27.2 25.9 11.3 37 9.1 SW 9 13 5 7 1008.7 1008.6 0.0
22/05:30pm 29.5 27.2 9.1 28 11.4 W 11 19 6 10 1008.9 1008.8 0.0
22/05:00pm 29.1 28.3 9.8 30 10.8 W 4 9 2 5 1009.1 1009.0 0.0
22/04:30pm 27.7 26.7 13.3 41 8.5 WSW 11 15 6 8 1009.8 1009.7 0.0
22/04:00pm 26.5 26.3 15.8 51 6.5 WSW 11 15 6 8 1010.1 1010.0 0.0
22/03:30pm 28.7 29.1 16.3 47 7.7 W 9 13 5 7 1010.3 1010.2 0.0
22/03:00pm 26.8 26.9 15.5 50 6.9 WSW 9 13 5 7 1010.7 1010.6 0.0
22/02:30pm 27.6 28.3 16.2 49 7.0 WNW 7 15 4 8 1011.1 1011.0 0.0
22/02:00pm 27.6 26.3 12.4 39 8.8 NNW 11 19 6 10 1011.5 1011.4 0.0
22/01:30pm 26.8 26.0 13.9 45 7.7 NNW 11 15 6 8 1012.0 1011.9 0.0
22/01:00pm 25.9 24.9 13.4 46 7.3 NNW 11 17 6 9 1012.5 1012.4 0.0
22/12:30pm 25.9 24.2 13.7 47 7.2 N 15 19 8 10 1012.7 1012.6 0.0
22/12:00pm 24.6 23.3 13.8 51 6.3 N 13 19 7 10 1013.0 1012.9 0.0
22/11:30am 23.9 22.6 13.7 53 6.0 N 13 17 7 9 1013.1 1013.0 0.0
22/11:00am 23.5 21.9 13.9 55 5.6 N 15 19 8 10 1013.4 1013.3 0.0
22/10:30am 22.8 21.1 13.6 56 5.3 N 15 22 8 12 1013.3 1013.2 0.0
22/10:00am 23.0 20.7 12.9 53 5.8 NNE 17 24 9 13 1013.5 1013.4 0.0
22/09:30am 23.3 21.2 13.5 54 5.7 NE 17 22 9 12 1013.7 1013.6 0.0
22/09:00am 21.1 18.5 13.3 61 4.5 NE 19 24 10 13 1013.6 1013.5 0.0
22/08:30am 19.0 16.4 13.2 69 3.3 NE 19 24 10 13 1013.7 1013.6 0.0
22/08:00am 17.5 14.7 12.6 73 2.7 ENE 19 28 10 15 1013.4 1013.3 0.0
22/07:30am 15.5 13.3 12.1 80 1.9 ENE 15 19 8 10 1013.5 1013.4 0.0
22/07:00am 14.3 11.6 11.6 84 1.4 E 17 19 9 10 1013.3 1013.2 0.0
22/06:30am 13.3 10.8 11.2 87 1.1 E 15 19 8 10 1013.1 1013.0 0.0
22/06:00am 13.1 10.6 11.0 87 1.1 E 15 19 8 10 1013.0 1012.9 0.0
22/05:30am 13.3 10.3 10.8 85 1.3 E 17 20 9 11 1013.3 1013.2 0.0
22/05:00am 13.8 10.9 11.0 83 1.5 E 17 22 9 12 1013.2 1013.1 0.0
22/04:30am 14.2 11.0 11.2 82 1.6 E 19 22 10 12 1013.0 1012.9 0.0
22/04:00am 14.6 11.2 11.4 81 1.7 E 20 26 11 14 1012.9 1012.8 0.0
22/03:30am 14.1 10.7 11.4 84 1.4 E 20 24 11 13 1013.0 1012.9 0.0
22/03:00am 14.2 10.9 11.5 84 1.4 E 20 24 11 13 1013.3 1013.2 0.0
22/02:30am 14.6 12.3 11.6 82 1.6 E 15 20 8 11 1013.6 1013.5 0.0
22/02:00am 14.7 12.8 11.7 82 1.6 ESE 13 19 7 10 1013.8 1013.7 0.0
22/01:30am 14.2 12.6 11.4 83 1.5 ESE 11 15 6 8 1014.2 1014.1 0.0
22/01:00am 14.5 12.9 11.7 83 1.5 ESE 11 17 6 9 1014.6 1014.5 0.0
22/12:30am 14.6 12.7 11.9 84 1.5 SE 13 20 7 11 1014.9 1014.8 0.0
22/12:00am 14.9 12.7 12.2 84 1.5 SE 15 20 8 11 1015.3 1015.2 0.0
 
Date/Time
CDT
Temp
°C
App
Temp
°C
Dew
Point
°C
Rel
Hum
%
Delta-T
°C
Wind Press
QNH
hPa
Press
MSL
hPa
Rain since
9am
mm
Dir  Spd
km/h
Gust
km/h
Spd
kts
Gust
kts
21/11:30pm 15.3 13.6 12.4 83 1.6 SSE 13 17 7 9 1015.6 1015.5 0.0
21/11:00pm 15.1 13.4 12.6 85 1.4 SSE 13 17 7 9 1015.6 1015.5 0.0
21/10:30pm 15.6 13.6 12.7 83 1.6 SSE 15 20 8 11 1015.8 1015.7 0.0
21/10:00pm 16.1 13.1 12.7 80 1.9 S 20 28 11 15 1015.9 1015.8 0.0
21/09:30pm 16.3 12.6 12.7 79 2.0 S 24 32 13 17 1015.9 1015.8 0.0
21/09:00pm 16.4 12.6 12.4 77 2.2 S 24 33 13 18 1015.7 1015.6 0.0
21/08:30pm 16.6 12.5 12.8 78 2.1 S 26 33 14 18 1015.7 1015.6 0.0
21/08:00pm 17.1 12.7 13.0 77 2.3 S 28 35 15 19 1015.4 1015.3 0.0
21/07:30pm 17.7 13.0 13.2 75 2.5 S 30 37 16 20 1015.0 1014.9 0.0

Other Formats:

Comma delimited format used in spreadsheet applications
http://www.bom.gov.au/fwo/IDS60801/IDS60801.94813.axf

JavaScript Object Notation format (JSON) in row-major order
http://www.bom.gov.au/fwo/IDS60801/IDS60801.94813.json